He, Dong
ChinaManBorn 19992022 – 2025Runner id 1816171
Events
28
2022 – 2025
Best pace
11.369
km/h · 2025
Best finish
1st
of 872 · 2023
Distance raced
2,713
km · splits not double-counted
Pace over time
km/h · higher is faster
Pace over time: 28 races from 2022 to 2025, ranging from 2.30 to 11.37 kilometres per hour, where higher is faster. A second, age-graded series is drawn above it; the gap between the two is the age credit.
- Actual pace
- Age-graded pace
Results
| Date | Event | Distance | Result | Pace km/h | Placing |
|---|---|---|---|---|---|
| 2022-11-05 | 70km | 8:49:57 h | 7.925 | 4/166 | |
| 2023-07-29 | 50km | 4:56:53 h | 10.105 | 2/208 | |
| 2023-09-17 | 67.3km | 7:49:59 h | 8.592 | 1/872 | |
| 2023-10-14 | 100km | 13:10:12 h | 7.593 | 2/250 | |
| 2023-10-28 | 115km | 15:14:32 h | 7.545 | 11/432 | |
| 2023-11-11 | 109.2km | 16:25:04 h | 6.651 | 3/14 | |
| 2023-11-25 | 100km | 11:08:00 h | 8.982 | 1/72 | |
| 2023-12-03 | 50km | 6:14:45 h | 8.005 | 3/91 | |
| 2024-04-19 | 143.7km | 20:12:04 h | 7.113 | 4/307 | |
| 2024-05-18 | 100km | 11:21:41 h | 8.802 | 1/40 | |
| 2024-09-16 | 70km | 6:45:41 h | 10.353 | 2/481 | |
| 2024-10-19 | 60km | 5:18:14 h | 11.312 | 6/1411 | |
| 2024-11-02 | 95km | 9:40:57 h | 9.812 | 13/967 | |
| 2024-11-09 | 110km | 11:22:10 h | 9.675 | 2/204 | |
| 2024-11-23 | 100km | 10:18:28 h | 9.701 | 1/143 | |
| 2024-12-06 | 175km | 22:28:28 h | 7.787 | 4/233 | |
| 2025-03-23 | 70km | 7:59:27 h | 8.760 | 5/561 | |
| 2025-04-18 | 159.2km | 20:30:47 h | 7.761 | 6/636 | |
| 2025-06-02 | Trail ShambhalaChina | 75km | 8:30:33 h | 8.814 | 12/132 |
| 2025-06-15 | 55km | 6:15:10 h | 8.796 | 10/117 | |
| 2025-07-11 | 168km | 22:33:55 h | 7.445 | 4/427 | |
| 2025-08-29 | 174km | 25:15:51 h | 6.887 | 53/1665 | |
| 2025-09-13 | 70km | 7:51:58 h | 8.899 | 1/434 | |
| 2025-09-20 | 95km | 8:21:22 h | 11.369 | 10/240 | |
| 2025-09-27 | Chiangmai 24 Hr ChallengeThailand | 24h | 55.268 km | 2.303 | 74/76 |
| 2025-10-25 | 110km | 14:22:45 h | 7.650 | 1/279 | |
| 2025-11-01 | 50km | 5:42:45 h | 8.753 | 53/2337 | |
| 2025-11-08 | 116km | 11:50:42 h | 9.793 | 2/170 |